createdAt,value
2022-08-06T00:01:01.053Z,19.60
2022-08-06T00:03:29.045Z,19.70
2022-08-06T00:05:59.874Z,19.80
2022-08-06T00:08:29.721Z,19.70
2022-08-06T00:10:57.576Z,19.90
2022-08-06T00:13:25.632Z,19.90
2022-08-06T00:16:09.080Z,19.90
2022-08-06T00:18:43.701Z,19.70
2022-08-06T00:21:40.468Z,19.60
2022-08-06T00:24:00.710Z,19.70
2022-08-06T00:26:30.024Z,19.80
2022-08-06T00:28:58.054Z,20.00
2022-08-06T00:31:30.296Z,19.90
2022-08-06T00:34:02.255Z,19.70
2022-08-06T00:36:30.528Z,19.60
2022-08-06T00:39:09.263Z,19.40
2022-08-06T00:41:42.329Z,19.30
2022-08-06T00:44:14.383Z,19.30
2022-08-06T00:46:42.593Z,19.10
2022-08-06T00:49:12.047Z,19.00
2022-08-06T00:51:51.220Z,19.20
2022-08-06T00:54:28.977Z,19.20
2022-08-06T00:57:04.139Z,19.30
2022-08-06T00:59:38.096Z,19.20
2022-08-06T01:02:09.846Z,19.30
2022-08-06T01:04:38.306Z,19.50
2022-08-06T01:07:09.042Z,19.50
2022-08-06T01:09:57.034Z,19.40
2022-08-06T01:12:33.395Z,19.50
2022-08-06T01:15:04.721Z,19.20
2022-08-06T01:17:37.094Z,19.10
2022-08-06T01:21:45.479Z,19.40
2022-08-06T01:23:29.023Z,19.30
2022-08-06T01:26:39.027Z,19.00
2022-08-06T01:29:09.542Z,19.20
2022-08-06T01:31:45.649Z,19.20
2022-08-06T01:34:17.287Z,19.40
2022-08-06T01:36:48.284Z,19.20
2022-08-06T01:39:22.847Z,19.20
2022-08-06T01:42:06.112Z,19.10
2022-08-06T01:44:36.310Z,19.10
2022-08-06T01:47:15.713Z,19.30
2022-08-06T01:50:01.789Z,19.40
2022-08-06T01:52:37.022Z,19.30
2022-08-06T01:55:10.028Z,19.30
2022-08-06T01:58:08.418Z,19.30
2022-08-06T02:00:30.555Z,19.20
2022-08-06T02:02:58.677Z,19.30
2022-08-06T02:05:26.591Z,19.30
2022-08-06T02:08:37.620Z,19.40
2022-08-06T02:10:48.042Z,19.40
2022-08-06T02:13:16.797Z,19.30
2022-08-06T02:15:58.729Z,19.20
2022-08-06T02:18:34.337Z,19.20
2022-08-06T02:21:13.686Z,19.30
2022-08-06T02:23:47.308Z,19.30
2022-08-06T02:26:15.522Z,19.00
2022-08-06T02:28:44.997Z,19.00
2022-08-06T02:31:22.661Z,19.10
2022-08-06T02:34:02.965Z,19.00
2022-08-06T02:36:49.894Z,19.00
2022-08-06T02:39:30.227Z,19.10
2022-08-06T02:42:24.384Z,19.10
2022-08-06T02:44:56.970Z,19.10
2022-08-06T02:47:36.108Z,19.00
2022-08-06T02:50:20.382Z,19.00
2022-08-06T02:52:57.836Z,18.90
2022-08-06T02:55:34.319Z,18.90
2022-08-06T02:58:06.438Z,19.00
2022-08-06T03:00:36.094Z,19.10
2022-08-06T03:03:21.253Z,19.10
2022-08-06T03:05:56.111Z,19.20
2022-08-06T03:08:26.621Z,19.30
2022-08-06T03:10:55.514Z,19.30
2022-08-06T03:13:23.796Z,19.10
2022-08-06T03:16:00.733Z,19.10
2022-08-06T03:18:30.428Z,18.90
2022-08-06T03:20:58.382Z,18.90
2022-08-06T03:23:26.900Z,18.70
2022-08-06T03:25:55.649Z,19.00
2022-08-06T03:28:23.460Z,18.90
2022-08-06T03:30:55.546Z,18.80
2022-08-06T03:33:29.339Z,18.80
2022-08-06T03:36:11.556Z,18.90
2022-08-06T03:38:41.083Z,19.10
2022-08-06T03:41:09.476Z,19.20
2022-08-06T03:43:55.760Z,18.90
2022-08-06T03:46:27.855Z,18.80
2022-08-06T03:48:56.203Z,18.50
2022-08-06T03:51:29.668Z,18.70
2022-08-06T03:54:28.290Z,18.80
2022-08-06T03:56:59.724Z,18.80
2022-08-06T03:59:37.939Z,18.80
2022-08-06T04:02:24.657Z,18.90
2022-08-06T04:04:59.908Z,18.80
2022-08-06T04:07:55.561Z,18.70
2022-08-06T04:10:22.835Z,18.60
2022-08-06T04:13:07.985Z,18.60
2022-08-06T04:15:49.719Z,18.70
2022-08-06T04:18:18.188Z,18.60
2022-08-06T04:20:48.160Z,18.70
2022-08-06T04:23:34.777Z,18.70
2022-08-06T04:26:14.627Z,18.50
2022-08-06T04:28:44.837Z,18.40
2022-08-06T04:31:57.089Z,18.50
2022-08-06T04:34:11.914Z,18.50
2022-08-06T04:36:40.454Z,18.80
2022-08-06T04:39:15.705Z,18.90
2022-08-06T04:41:49.101Z,18.70
2022-08-06T04:44:29.059Z,18.60
2022-08-06T04:46:57.428Z,18.70
2022-08-06T04:49:25.481Z,18.50
2022-08-06T04:52:35.362Z,18.50
2022-08-06T04:55:25.425Z,18.40
2022-08-06T04:58:08.429Z,18.30
2022-08-06T05:01:04.150Z,18.30
2022-08-06T05:04:07.032Z,18.40
2022-08-06T05:06:21.954Z,18.40
2022-08-06T05:08:52.867Z,18.70
2022-08-06T05:11:24.761Z,18.80
2022-08-06T05:13:54.467Z,18.90
2022-08-06T05:16:24.770Z,18.90
2022-08-06T05:19:21.386Z,18.80
2022-08-06T05:22:10.189Z,18.50
2022-08-06T05:24:38.777Z,18.60
2022-08-06T05:27:08.952Z,18.40
2022-08-06T05:29:39.034Z,18.60
2022-08-06T05:32:17.804Z,18.60
2022-08-06T05:34:53.031Z,18.60
2022-08-06T05:37:26.549Z,18.60
2022-08-06T05:40:12.013Z,18.60
2022-08-06T05:42:41.627Z,18.80
2022-08-06T05:45:26.410Z,18.70
2022-08-06T05:47:56.520Z,18.80
2022-08-06T05:50:25.443Z,18.80
2022-08-06T05:52:57.122Z,18.70
2022-08-06T05:55:38.079Z,18.60
2022-08-06T05:58:10.624Z,18.50
2022-08-06T06:00:43.207Z,18.80
2022-08-06T06:03:23.860Z,18.90
2022-08-06T06:06:07.835Z,18.80
2022-08-06T06:08:57.606Z,18.90
2022-08-06T06:11:47.163Z,19.00
2022-08-06T06:14:32.516Z,19.20
2022-08-06T06:17:13.007Z,19.10
2022-08-06T06:19:52.369Z,19.00
2022-08-06T06:22:27.568Z,19.00
2022-08-06T06:24:57.965Z,19.00
2022-08-06T06:27:42.300Z,19.10
2022-08-06T06:30:19.896Z,19.10
2022-08-06T06:33:12.001Z,19.20
2022-08-06T06:35:54.828Z,19.30
2022-08-06T06:38:31.894Z,19.40
2022-08-06T06:41:19.782Z,19.30
2022-08-06T06:43:54.309Z,19.10
2022-08-06T06:46:39.138Z,19.10
2022-08-06T06:49:59.300Z,19.20
2022-08-06T06:52:09.109Z,19.30
2022-08-06T06:54:39.731Z,19.20
2022-08-06T06:57:09.202Z,19.00
2022-08-06T07:00:00.700Z,19.00
2022-08-06T07:02:29.605Z,19.10
2022-08-06T07:04:59.521Z,19.00
2022-08-06T07:07:27.855Z,19.00
2022-08-06T07:10:01.000Z,19.00
2022-08-06T07:12:33.783Z,18.80
2022-08-06T07:15:02.464Z,18.80
2022-08-06T07:17:45.553Z,18.80
2022-08-06T07:20:20.504Z,19.00
2022-08-06T07:24:06.301Z,18.80
2022-08-06T07:25:53.964Z,19.00
2022-08-06T07:28:28.392Z,18.90
2022-08-06T07:31:04.122Z,19.00
2022-08-06T07:33:42.635Z,18.90
2022-08-06T07:36:26.504Z,18.80
2022-08-06T07:38:57.259Z,18.90
2022-08-06T07:41:31.645Z,18.70
2022-08-06T07:44:14.410Z,18.70
2022-08-06T07:46:52.250Z,18.50
2022-08-06T07:49:31.504Z,18.60
2022-08-06T07:52:12.812Z,18.60
2022-08-06T07:54:45.995Z,18.70
2022-08-06T07:57:14.868Z,18.70
2022-08-06T07:59:45.146Z,18.70
2022-08-06T08:02:13.163Z,18.60
2022-08-06T08:05:02.109Z,18.60
2022-08-06T08:07:37.850Z,18.60
2022-08-06T08:10:20.320Z,18.50
2022-08-06T08:12:56.970Z,18.50
2022-08-06T08:15:24.993Z,18.50
2022-08-06T08:17:57.147Z,18.50
2022-08-06T08:20:34.274Z,18.40
2022-08-06T08:23:03.450Z,18.40
2022-08-06T08:25:40.229Z,18.20
2022-08-06T08:28:12.639Z,18.10
2022-08-06T08:30:43.790Z,18.10
2022-08-06T08:33:15.485Z,17.90
2022-08-06T08:35:50.326Z,18.10
2022-08-06T08:38:29.509Z,18.30
2022-08-06T08:40:58.341Z,18.20
2022-08-06T08:43:40.709Z,18.20
2022-08-06T08:46:31.004Z,18.30
2022-08-06T08:49:00.305Z,18.20
2022-08-06T08:51:29.796Z,18.30
2022-08-06T08:54:06.919Z,18.30
2022-08-06T08:57:06.460Z,18.30
2022-08-06T08:59:59.546Z,18.20
2022-08-06T09:02:13.540Z,18.20
2022-08-06T09:04:42.064Z,18.50
2022-08-06T09:07:19.454Z,18.30
2022-08-06T09:10:01.322Z,18.40
2022-08-06T09:12:34.271Z,18.20
2022-08-06T09:15:05.919Z,18.10
2022-08-06T09:18:12.045Z,18.10
2022-08-06T09:20:22.439Z,18.10
2022-08-06T09:22:52.256Z,18.00
2022-08-06T09:25:50.011Z,17.90
2022-08-06T09:28:31.051Z,17.70
2022-08-06T09:31:00.411Z,17.90
2022-08-06T09:34:30.313Z,17.90
2022-08-06T09:36:30.264Z,17.70
2022-08-06T09:39:01.254Z,17.80
2022-08-06T09:41:30.510Z,17.90
2022-08-06T09:44:02.657Z,18.00
2022-08-06T09:46:39.649Z,17.70
2022-08-06T09:49:47.840Z,17.90
2022-08-06T09:52:14.242Z,17.60
2022-08-06T09:54:43.409Z,17.50
2022-08-06T09:57:26.603Z,17.50
2022-08-06T10:00:02.139Z,17.70
2022-08-06T10:02:34.401Z,17.70
2022-08-06T10:05:19.624Z,17.60
2022-08-06T10:07:52.909Z,17.80
2022-08-06T10:10:40.968Z,17.80
2022-08-06T10:13:19.460Z,17.80
2022-08-06T10:16:00.621Z,17.50
2022-08-06T10:18:55.786Z,17.40
2022-08-06T10:21:26.949Z,17.50
2022-08-06T10:23:56.317Z,17.60
2022-08-06T10:26:27.870Z,17.70
2022-08-06T10:29:03.177Z,17.70
2022-08-06T10:31:32.088Z,17.30
2022-08-06T10:34:01.750Z,17.30
2022-08-06T10:36:35.043Z,17.30
2022-08-06T10:39:03.586Z,17.50
2022-08-06T10:42:01.315Z,17.30
2022-08-06T10:44:33.894Z,17.50
2022-08-06T10:47:07.197Z,17.40
2022-08-06T10:50:24.039Z,17.60
2022-08-06T10:52:24.729Z,17.60
2022-08-06T10:54:53.122Z,17.70
2022-08-06T10:57:24.266Z,17.50
2022-08-06T11:00:06.235Z,17.40
2022-08-06T11:02:37.253Z,17.60
2022-08-06T11:05:21.178Z,17.40
2022-08-06T11:08:14.416Z,17.50
2022-08-06T11:11:04.647Z,17.40
2022-08-06T11:13:36.900Z,17.50
2022-08-06T11:16:27.891Z,17.50
2022-08-06T11:19:07.099Z,17.70
2022-08-06T11:22:01.809Z,17.50
2022-08-06T11:24:33.277Z,17.60
2022-08-06T11:27:10.911Z,17.60
2022-08-06T11:30:07.716Z,17.60
2022-08-06T11:32:45.471Z,17.60
2022-08-06T11:35:49.132Z,17.50
2022-08-06T11:38:59.239Z,17.60
2022-08-06T11:41:54.317Z,17.90
2022-08-06T11:44:18.672Z,17.90
2022-08-06T11:47:09.076Z,17.90
2022-08-06T11:49:43.838Z,17.70
2022-08-06T11:52:27.505Z,17.70
2022-08-06T11:55:02.437Z,17.90
2022-08-06T11:57:41.618Z,17.90
2022-08-06T12:00:21.181Z,18.00
2022-08-06T12:02:56.018Z,18.00
2022-08-06T12:05:56.816Z,17.80
2022-08-06T12:08:41.750Z,17.80
2022-08-06T12:11:24.023Z,17.90
2022-08-06T12:14:31.974Z,17.80
2022-08-06T12:16:46.988Z,18.00
2022-08-06T12:19:24.598Z,17.90
2022-08-06T12:21:56.725Z,17.60
2022-08-06T12:24:35.670Z,17.70
2022-08-06T12:27:14.604Z,17.70
2022-08-06T12:29:43.408Z,17.70
2022-08-06T12:32:24.751Z,17.70
2022-08-06T12:34:58.619Z,17.80
2022-08-06T12:37:41.471Z,17.80
2022-08-06T12:40:35.644Z,17.70
2022-08-06T12:43:15.237Z,17.80
2022-08-06T12:46:06.122Z,17.70
2022-08-06T12:48:32.386Z,17.80
2022-08-06T12:51:11.387Z,17.70
2022-08-06T12:53:43.372Z,17.50
2022-08-06T12:56:16.031Z,17.70
2022-08-06T12:58:57.946Z,17.60
2022-08-06T13:02:11.001Z,17.80
2022-08-06T13:04:17.138Z,17.80
2022-08-06T13:06:49.217Z,17.60
2022-08-06T13:09:18.010Z,17.70
2022-08-06T13:11:51.395Z,17.90
2022-08-06T13:14:20.506Z,17.90
2022-08-06T13:16:57.312Z,17.80
2022-08-06T13:19:32.596Z,17.80
2022-08-06T13:22:11.574Z,17.70
2022-08-06T13:25:04.205Z,17.70
2022-08-06T13:27:35.092Z,17.80
2022-08-06T13:30:31.164Z,17.90
2022-08-06T13:32:54.096Z,18.00
2022-08-06T13:35:30.617Z,18.00
2022-08-06T13:38:16.068Z,17.90
2022-08-06T13:40:47.550Z,18.20
2022-08-06T13:43:40.059Z,18.20
2022-08-06T13:46:15.628Z,18.20
2022-08-06T13:48:48.827Z,18.20
2022-08-06T13:51:22.752Z,18.10
2022-08-06T13:53:58.741Z,18.10
2022-08-06T13:56:28.815Z,18.10
2022-08-06T13:58:58.502Z,18.00
2022-08-06T14:01:35.054Z,18.10
2022-08-06T14:04:14.857Z,18.00
2022-08-06T14:06:44.807Z,18.00
2022-08-06T14:09:20.156Z,18.00
2022-08-06T14:11:51.502Z,18.00
2022-08-06T14:14:22.451Z,17.80
2022-08-06T14:16:51.324Z,17.90
2022-08-06T14:20:05.251Z,17.90
2022-08-06T14:22:08.352Z,17.80
2022-08-06T14:24:39.915Z,17.80
2022-08-06T14:27:25.836Z,17.90
2022-08-06T14:30:25.596Z,17.80
2022-08-06T14:32:47.816Z,17.90
2022-08-06T14:35:16.400Z,18.00
2022-08-06T14:37:51.379Z,17.90
2022-08-06T14:41:18.256Z,17.90
2022-08-06T14:44:25.096Z,17.90
2022-08-06T14:46:53.441Z,18.00
2022-08-06T14:49:21.372Z,18.10
2022-08-06T14:52:20.911Z,18.10
2022-08-06T14:54:38.331Z,17.90
2022-08-06T14:57:14.899Z,17.90
2022-08-06T14:59:49.012Z,18.00
2022-08-06T15:02:24.927Z,17.90
2022-08-06T15:04:53.308Z,17.90
2022-08-06T15:07:24.772Z,18.00
2022-08-06T15:10:05.488Z,17.90
2022-08-06T15:12:48.547Z,18.00
2022-08-06T15:15:19.062Z,18.10
2022-08-06T15:18:11.166Z,18.10
2022-08-06T15:20:42.645Z,18.10
2022-08-06T15:23:11.506Z,18.10
2022-08-06T15:26:02.052Z,18.10
2022-08-06T15:28:27.957Z,18.00
2022-08-06T15:30:59.252Z,18.10
2022-08-06T15:33:27.855Z,18.10
2022-08-06T15:36:02.841Z,18.10
2022-08-06T15:38:32.906Z,18.00
2022-08-06T15:41:01.420Z,18.10
2022-08-06T15:43:44.065Z,18.20
2022-08-06T15:46:28.961Z,18.20
2022-08-06T15:48:59.779Z,18.20
2022-08-06T15:51:31.015Z,18.10
2022-08-06T15:53:59.800Z,18.10
2022-08-06T15:56:33.694Z,18.10
2022-08-06T15:59:06.106Z,18.20
2022-08-06T16:01:52.297Z,18.20
2022-08-06T16:04:30.724Z,18.30
2022-08-06T16:07:00.214Z,18.30
2022-08-06T16:09:28.917Z,18.20
2022-08-06T16:11:57.377Z,18.20
2022-08-06T16:14:33.838Z,18.20
2022-08-06T16:17:09.857Z,18.20
2022-08-06T16:19:48.933Z,18.20
2022-08-06T16:22:18.724Z,18.30
2022-08-06T16:24:48.697Z,18.30
2022-08-06T16:27:17.344Z,18.40
2022-08-06T16:29:47.536Z,18.40
2022-08-06T16:32:25.128Z,18.30
2022-08-06T16:34:59.054Z,18.30
2022-08-06T16:37:33.332Z,18.20
2022-08-06T16:40:08.970Z,18.30
2022-08-06T16:42:37.198Z,18.30
2022-08-06T16:45:11.728Z,18.20
2022-08-06T16:48:21.254Z,18.30
2022-08-06T16:50:43.648Z,18.40
2022-08-06T16:54:14.145Z,18.30
2022-08-06T16:56:00.332Z,18.30
2022-08-06T16:58:34.107Z,18.20
2022-08-06T17:02:14.024Z,18.20
2022-08-06T17:03:58.742Z,18.20
2022-08-06T17:06:30.228Z,18.20
2022-08-06T17:08:58.465Z,18.20
2022-08-06T17:11:45.304Z,18.10
2022-08-06T17:14:20.038Z,18.20
2022-08-06T17:16:48.212Z,18.20
2022-08-06T17:19:18.287Z,18.20
2022-08-06T17:21:58.564Z,18.10
2022-08-06T17:24:36.589Z,18.10
2022-08-06T17:27:08.746Z,18.10
2022-08-06T17:29:46.054Z,18.00
2022-08-06T17:32:30.111Z,18.00
2022-08-06T17:35:06.232Z,18.10
2022-08-06T17:37:43.683Z,18.10
2022-08-06T17:40:19.768Z,18.10
2022-08-06T17:43:00.580Z,18.20
2022-08-06T17:45:32.444Z,18.10
2022-08-06T17:48:02.754Z,18.10
2022-08-06T17:50:42.240Z,18.10
2022-08-06T17:53:19.996Z,18.10
2022-08-06T17:56:00.396Z,18.10
2022-08-06T17:58:37.643Z,18.00
2022-08-06T18:01:09.942Z,18.10
2022-08-06T18:03:50.896Z,18.20
2022-08-06T18:06:28.518Z,18.10
2022-08-06T18:08:58.550Z,18.10
2022-08-06T18:11:45.319Z,18.00
2022-08-06T18:14:32.237Z,17.90
2022-08-06T18:17:00.742Z,18.00
2022-08-06T18:19:34.422Z,18.00
2022-08-06T18:22:21.231Z,18.00
2022-08-06T18:24:52.140Z,17.90
2022-08-06T18:27:55.349Z,18.00
2022-08-06T18:30:10.606Z,18.00
2022-08-06T18:32:40.247Z,18.10
2022-08-06T18:35:17.642Z,18.10
2022-08-06T18:38:02.097Z,18.10
2022-08-06T18:40:40.538Z,18.10
2022-08-06T18:43:09.909Z,18.10
2022-08-06T18:45:58.439Z,18.00
2022-08-06T18:48:27.048Z,18.00
2022-08-06T18:50:54.900Z,18.00
2022-08-06T18:53:26.599Z,18.00
2022-08-06T18:56:16.707Z,18.00
2022-08-06T18:58:47.029Z,17.90
2022-08-06T19:01:21.059Z,17.80
2022-08-06T19:03:50.514Z,17.70
2022-08-06T19:06:29.286Z,17.70
2022-08-06T19:08:59.073Z,17.60
2022-08-06T19:11:38.907Z,17.60
2022-08-06T19:14:18.686Z,17.70
2022-08-06T19:16:48.665Z,17.70
2022-08-06T19:19:46.433Z,17.80
2022-08-06T19:22:07.262Z,17.80
2022-08-06T19:24:39.737Z,17.80
2022-08-06T19:27:08.218Z,17.70
2022-08-06T19:29:58.579Z,17.70
2022-08-06T19:32:28.267Z,17.70
2022-08-06T19:34:59.779Z,17.80
2022-08-06T19:37:59.708Z,17.80
2022-08-06T19:40:52.758Z,17.70
2022-08-06T19:44:26.626Z,17.70
2022-08-06T19:46:29.807Z,17.70
2022-08-06T19:48:57.476Z,17.70
2022-08-06T19:52:01.025Z,17.60
2022-08-06T19:54:15.569Z,17.70
2022-08-06T19:56:46.729Z,17.70
2022-08-06T20:00:52.916Z,17.70
2022-08-06T20:02:08.739Z,17.70
2022-08-06T20:04:43.306Z,17.60
2022-08-06T20:07:23.948Z,17.60
2022-08-06T20:10:01.413Z,17.70
2022-08-06T20:12:34.911Z,17.70
2022-08-06T20:15:04.095Z,17.60
2022-08-06T20:17:50.003Z,17.60
2022-08-06T20:20:28.714Z,17.60
2022-08-06T20:22:58.949Z,17.50
2022-08-06T20:25:26.949Z,17.50
2022-08-06T20:29:07.004Z,17.50
2022-08-06T20:30:50.439Z,17.50
2022-08-06T20:33:24.301Z,17.50
2022-08-06T20:35:58.356Z,17.50
2022-08-06T20:38:40.293Z,17.50
2022-08-06T20:41:56.841Z,17.60
2022-08-06T20:44:05.086Z,17.60
2022-08-06T20:49:47.935Z,17.70
2022-08-06T20:52:17.793Z,17.70
2022-08-06T20:54:51.500Z,17.60
2022-08-06T20:57:26.441Z,17.60
2022-08-06T20:59:57.991Z,17.60
2022-08-06T21:02:32.921Z,17.60
2022-08-06T21:05:14.386Z,17.50
2022-08-06T21:07:57.087Z,17.50
2022-08-06T21:10:27.114Z,17.60
2022-08-06T21:13:02.054Z,17.70
2022-08-06T21:15:52.132Z,17.70
2022-08-06T21:18:21.030Z,17.60
2022-08-06T21:20:50.755Z,17.60
2022-08-06T21:23:21.294Z,17.50
2022-08-06T21:25:58.906Z,17.40
2022-08-06T21:28:27.161Z,17.40
2022-08-06T21:30:59.239Z,17.50
2022-08-06T21:33:27.465Z,17.50
2022-08-06T21:35:55.358Z,17.50
2022-08-06T21:38:26.266Z,17.50
2022-08-06T21:40:56.336Z,17.50
2022-08-06T21:43:29.345Z,17.40
2022-08-06T21:46:21.417Z,17.50
2022-08-06T21:48:55.770Z,17.40
2022-08-06T21:51:23.662Z,17.50
2022-08-06T21:54:01.676Z,17.50
2022-08-06T21:56:38.444Z,17.40
2022-08-06T21:59:12.743Z,17.50
2022-08-06T22:02:10.840Z,17.40
2022-08-06T22:04:37.841Z,17.30
2022-08-06T22:07:14.494Z,17.30
2022-08-06T22:09:45.242Z,17.40
2022-08-06T22:12:36.572Z,17.40
2022-08-06T22:15:02.800Z,17.40
2022-08-06T22:17:59.322Z,17.40
2022-08-06T22:20:22.168Z,17.40
2022-08-06T22:22:53.112Z,17.30
2022-08-06T22:25:22.193Z,17.30
2022-08-06T22:27:54.668Z,17.40
2022-08-06T22:30:37.426Z,17.30
2022-08-06T22:33:14.395Z,17.50
2022-08-06T22:35:57.100Z,17.40
2022-08-06T22:38:26.948Z,17.50
2022-08-06T22:40:55.173Z,17.50
2022-08-06T22:43:29.754Z,17.40
2022-08-06T22:46:11.681Z,17.40
2022-08-06T22:48:41.036Z,17.40
2022-08-06T22:51:19.275Z,17.40
2022-08-06T22:54:29.262Z,17.40
2022-08-06T22:57:04.553Z,17.40
2022-08-06T23:00:11.001Z,17.30
2022-08-06T23:02:19.919Z,17.30
2022-08-06T23:04:49.227Z,17.50
2022-08-06T23:07:25.655Z,17.40
2022-08-06T23:09:54.339Z,17.40
2022-08-06T23:12:31.511Z,17.40
2022-08-06T23:15:19.948Z,17.40
2022-08-06T23:17:56.723Z,17.40
2022-08-06T23:20:32.801Z,17.30
2022-08-06T23:23:03.182Z,17.20
2022-08-06T23:25:59.931Z,17.20
2022-08-06T23:28:22.986Z,17.20
2022-08-06T23:30:52.074Z,17.30
2022-08-06T23:33:20.166Z,17.30
2022-08-06T23:35:50.818Z,17.30
2022-08-06T23:38:31.732Z,17.30
2022-08-06T23:41:01.191Z,17.30
2022-08-06T23:43:34.633Z,17.40
2022-08-06T23:46:03.377Z,17.40
2022-08-06T23:48:31.703Z,17.30
2022-08-06T23:51:05.000Z,17.30
2022-08-06T23:54:07.482Z,17.40
2022-08-06T23:56:26.767Z,17.30
2022-08-06T23:58:57.591Z,17.40
